sensor_id;sensor_type;location;lat;lon;timestamp;temperature;humidity
10057;DHT22;5068;51.286;7.518;2023-07-29T00:01:11;17.30;71.40
10057;DHT22;5068;51.286;7.518;2023-07-29T00:02:43;17.30;71.50
10057;DHT22;5068;51.286;7.518;2023-07-29T00:04:18;17.30;71.30
10057;DHT22;5068;51.286;7.518;2023-07-29T00:05:50;17.30;71.30
10057;DHT22;5068;51.286;7.518;2023-07-29T00:07:24;17.20;71.60
10057;DHT22;5068;51.286;7.518;2023-07-29T00:08:57;17.30;71.90
10057;DHT22;5068;51.286;7.518;2023-07-29T00:10:31;17.20;71.90
10057;DHT22;5068;51.286;7.518;2023-07-29T00:12:05;17.20;72.00
10057;DHT22;5068;51.286;7.518;2023-07-29T00:13:40;17.20;71.80
10057;DHT22;5068;51.286;7.518;2023-07-29T00:15:13;17.40;71.80
10057;DHT22;5068;51.286;7.518;2023-07-29T00:16:46;17.30;71.70
10057;DHT22;5068;51.286;7.518;2023-07-29T00:18:20;17.20;71.50
10057;DHT22;5068;51.286;7.518;2023-07-29T00:19:53;17.20;71.70
10057;DHT22;5068;51.286;7.518;2023-07-29T00:21:26;17.20;71.20
10057;DHT22;5068;51.286;7.518;2023-07-29T00:23:00;17.40;71.40
10057;DHT22;5068;51.286;7.518;2023-07-29T00:24:33;17.30;71.80
10057;DHT22;5068;51.286;7.518;2023-07-29T00:26:07;17.30;71.80
10057;DHT22;5068;51.286;7.518;2023-07-29T00:27:40;17.30;71.30
10057;DHT22;5068;51.286;7.518;2023-07-29T00:29:14;17.30;71.30
10057;DHT22;5068;51.286;7.518;2023-07-29T00:30:48;17.30;71.40
10057;DHT22;5068;51.286;7.518;2023-07-29T00:32:20;17.30;71.10
10057;DHT22;5068;51.286;7.518;2023-07-29T00:33:54;17.30;71.50
10057;DHT22;5068;51.286;7.518;2023-07-29T00:35:27;17.30;70.90
10057;DHT22;5068;51.286;7.518;2023-07-29T00:37:00;17.30;71.10
10057;DHT22;5068;51.286;7.518;2023-07-29T00:38:34;17.30;71.80
10057;DHT22;5068;51.286;7.518;2023-07-29T00:40:14;17.30;71.30
10057;DHT22;5068;51.286;7.518;2023-07-29T00:41:52;17.20;71.50
10057;DHT22;5068;51.286;7.518;2023-07-29T00:43:26;17.30;71.40
10057;DHT22;5068;51.286;7.518;2023-07-29T00:45:00;17.30;71.40
10057;DHT22;5068;51.286;7.518;2023-07-29T00:46:36;17.20;71.40
10057;DHT22;5068;51.286;7.518;2023-07-29T00:48:13;17.20;71.50
10057;DHT22;5068;51.286;7.518;2023-07-29T00:49:46;17.20;71.50
10057;DHT22;5068;51.286;7.518;2023-07-29T00:51:20;17.20;71.60
10057;DHT22;5068;51.286;7.518;2023-07-29T00:52:54;17.20;71.40
10057;DHT22;5068;51.286;7.518;2023-07-29T00:54:28;17.20;71.60
10057;DHT22;5068;51.286;7.518;2023-07-29T00:56:01;17.20;71.70
10057;DHT22;5068;51.286;7.518;2023-07-29T00:57:35;17.20;71.60
10057;DHT22;5068;51.286;7.518;2023-07-29T00:59:09;17.20;71.70
10057;DHT22;5068;51.286;7.518;2023-07-29T01:00:43;17.20;71.70
10057;DHT22;5068;51.286;7.518;2023-07-29T01:02:16;17.20;71.80
10057;DHT22;5068;51.286;7.518;2023-07-29T01:03:49;17.20;71.80
10057;DHT22;5068;51.286;7.518;2023-07-29T01:05:26;17.20;72.00
10057;DHT22;5068;51.286;7.518;2023-07-29T01:07:11;17.20;72.30
10057;DHT22;5068;51.286;7.518;2023-07-29T01:08:55;17.20;72.30
10057;DHT22;5068;51.286;7.518;2023-07-29T01:10:40;17.10;72.30
10057;DHT22;5068;51.286;7.518;2023-07-29T01:12:22;17.20;72.60
10057;DHT22;5068;51.286;7.518;2023-07-29T01:14:05;17.20;72.60
10057;DHT22;5068;51.286;7.518;2023-07-29T01:15:55;17.20;72.70
10057;DHT22;5068;51.286;7.518;2023-07-29T01:17:33;17.20;72.70
10057;DHT22;5068;51.286;7.518;2023-07-29T01:19:22;17.20;72.70
10057;DHT22;5068;51.286;7.518;2023-07-29T01:21:08;17.20;72.80
10057;DHT22;5068;51.286;7.518;2023-07-29T01:22:44;17.20;72.70
10057;DHT22;5068;51.286;7.518;2023-07-29T01:24:18;17.20;72.50
10057;DHT22;5068;51.286;7.518;2023-07-29T01:25:51;17.20;72.70
10057;DHT22;5068;51.286;7.518;2023-07-29T01:27:24;17.20;72.70
10057;DHT22;5068;51.286;7.518;2023-07-29T01:28:57;17.20;73.30
10057;DHT22;5068;51.286;7.518;2023-07-29T01:30:33;17.20;72.70
10057;DHT22;5068;51.286;7.518;2023-07-29T01:32:20;17.20;72.90
10057;DHT22;5068;51.286;7.518;2023-07-29T01:34:01;17.20;72.80
10057;DHT22;5068;51.286;7.518;2023-07-29T01:35:46;17.20;72.90
10057;DHT22;5068;51.286;7.518;2023-07-29T01:37:26;17.20;72.90
10057;DHT22;5068;51.286;7.518;2023-07-29T01:39:03;17.20;72.90
10057;DHT22;5068;51.286;7.518;2023-07-29T01:40:38;17.20;72.70
10057;DHT22;5068;51.286;7.518;2023-07-29T01:42:12;17.20;72.90
10057;DHT22;5068;51.286;7.518;2023-07-29T01:43:46;17.20;72.70
10057;DHT22;5068;51.286;7.518;2023-07-29T01:45:23;17.20;72.90
10057;DHT22;5068;51.286;7.518;2023-07-29T01:46:57;17.20;73.00
10057;DHT22;5068;51.286;7.518;2023-07-29T01:48:31;17.20;72.80
10057;DHT22;5068;51.286;7.518;2023-07-29T01:50:06;17.10;72.70
10057;DHT22;5068;51.286;7.518;2023-07-29T01:51:39;17.20;73.30
10057;DHT22;5068;51.286;7.518;2023-07-29T01:53:13;17.20;73.00
10057;DHT22;5068;51.286;7.518;2023-07-29T01:54:45;17.20;73.10
10057;DHT22;5068;51.286;7.518;2023-07-29T01:56:20;17.20;73.10
10057;DHT22;5068;51.286;7.518;2023-07-29T01:57:59;17.20;74.10
10057;DHT22;5068;51.286;7.518;2023-07-29T01:59:33;17.30;73.30
10057;DHT22;5068;51.286;7.518;2023-07-29T02:01:05;17.20;73.30
10057;DHT22;5068;51.286;7.518;2023-07-29T02:02:39;17.20;73.20
10057;DHT22;5068;51.286;7.518;2023-07-29T02:04:12;17.20;73.30
10057;DHT22;5068;51.286;7.518;2023-07-29T02:05:45;17.20;73.40
10057;DHT22;5068;51.286;7.518;2023-07-29T02:07:18;17.30;74.30
10057;DHT22;5068;51.286;7.518;2023-07-29T02:08:53;17.30;73.40
10057;DHT22;5068;51.286;7.518;2023-07-29T02:10:27;17.30;73.60
10057;DHT22;5068;51.286;7.518;2023-07-29T02:12:02;17.40;73.50
10057;DHT22;5068;51.286;7.518;2023-07-29T02:13:41;17.30;73.60
10057;DHT22;5068;51.286;7.518;2023-07-29T02:15:15;17.30;73.40
10057;DHT22;5068;51.286;7.518;2023-07-29T02:16:48;17.30;73.40
10057;DHT22;5068;51.286;7.518;2023-07-29T02:18:22;17.30;73.30
10057;DHT22;5068;51.286;7.518;2023-07-29T02:19:56;17.30;73.30
10057;DHT22;5068;51.286;7.518;2023-07-29T02:21:28;17.30;74.00
10057;DHT22;5068;51.286;7.518;2023-07-29T02:23:02;17.30;73.30
10057;DHT22;5068;51.286;7.518;2023-07-29T02:24:34;17.30;73.10
10057;DHT22;5068;51.286;7.518;2023-07-29T02:26:08;17.30;73.40
10057;DHT22;5068;51.286;7.518;2023-07-29T02:27:44;17.30;73.50
10057;DHT22;5068;51.286;7.518;2023-07-29T02:29:17;17.30;73.50
10057;DHT22;5068;51.286;7.518;2023-07-29T02:31:09;17.30;73.40
10057;DHT22;5068;51.286;7.518;2023-07-29T02:32:48;17.30;73.80
10057;DHT22;5068;51.286;7.518;2023-07-29T02:34:22;17.40;73.40
10057;DHT22;5068;51.286;7.518;2023-07-29T02:35:54;17.30;73.50
10057;DHT22;5068;51.286;7.518;2023-07-29T02:37:28;17.30;73.40
10057;DHT22;5068;51.286;7.518;2023-07-29T02:39:01;17.40;73.40
10057;DHT22;5068;51.286;7.518;2023-07-29T02:40:34;17.40;73.50
10057;DHT22;5068;51.286;7.518;2023-07-29T02:42:08;17.40;73.20
10057;DHT22;5068;51.286;7.518;2023-07-29T02:43:42;17.40;73.50
10057;DHT22;5068;51.286;7.518;2023-07-29T02:45:16;17.40;73.50
10057;DHT22;5068;51.286;7.518;2023-07-29T02:46:49;17.40;73.40
10057;DHT22;5068;51.286;7.518;2023-07-29T02:48:25;17.40;73.40
10057;DHT22;5068;51.286;7.518;2023-07-29T02:49:58;17.40;73.40
10057;DHT22;5068;51.286;7.518;2023-07-29T02:51:31;17.40;73.40
10057;DHT22;5068;51.286;7.518;2023-07-29T02:53:04;17.40;73.10
10057;DHT22;5068;51.286;7.518;2023-07-29T02:54:37;17.50;72.80
10057;DHT22;5068;51.286;7.518;2023-07-29T02:56:11;17.40;72.90
10057;DHT22;5068;51.286;7.518;2023-07-29T02:57:43;17.40;73.00
10057;DHT22;5068;51.286;7.518;2023-07-29T02:59:18;17.50;73.00
10057;DHT22;5068;51.286;7.518;2023-07-29T03:00:51;17.40;73.00
10057;DHT22;5068;51.286;7.518;2023-07-29T03:02:24;17.40;72.90
10057;DHT22;5068;51.286;7.518;2023-07-29T03:03:57;17.40;73.00
10057;DHT22;5068;51.286;7.518;2023-07-29T03:05:31;17.40;73.10
10057;DHT22;5068;51.286;7.518;2023-07-29T03:07:04;17.40;73.20
10057;DHT22;5068;51.286;7.518;2023-07-29T03:08:37;17.50;73.40
10057;DHT22;5068;51.286;7.518;2023-07-29T03:10:10;17.40;73.10
10057;DHT22;5068;51.286;7.518;2023-07-29T03:11:44;17.40;73.60
10057;DHT22;5068;51.286;7.518;2023-07-29T03:13:16;17.40;73.50
10057;DHT22;5068;51.286;7.518;2023-07-29T03:14:51;17.40;73.50
10057;DHT22;5068;51.286;7.518;2023-07-29T03:16:25;17.40;73.50
10057;DHT22;5068;51.286;7.518;2023-07-29T03:17:59;17.40;73.80
10057;DHT22;5068;51.286;7.518;2023-07-29T03:19:33;17.40;73.90
10057;DHT22;5068;51.286;7.518;2023-07-29T03:21:07;17.40;73.90
10057;DHT22;5068;51.286;7.518;2023-07-29T03:22:40;17.40;74.00
10057;DHT22;5068;51.286;7.518;2023-07-29T03:24:14;17.40;73.80
10057;DHT22;5068;51.286;7.518;2023-07-29T03:25:48;17.40;73.90
10057;DHT22;5068;51.286;7.518;2023-07-29T03:27:23;17.40;74.10
10057;DHT22;5068;51.286;7.518;2023-07-29T03:28:56;17.40;73.80
10057;DHT22;5068;51.286;7.518;2023-07-29T03:30:30;17.40;73.90
10057;DHT22;5068;51.286;7.518;2023-07-29T03:32:04;17.40;73.90
10057;DHT22;5068;51.286;7.518;2023-07-29T03:33:38;17.40;73.90
10057;DHT22;5068;51.286;7.518;2023-07-29T03:35:11;17.40;73.60
10057;DHT22;5068;51.286;7.518;2023-07-29T03:36:44;17.40;73.70
10057;DHT22;5068;51.286;7.518;2023-07-29T03:38:19;17.40;73.80
10057;DHT22;5068;51.286;7.518;2023-07-29T03:39:53;17.50;73.90
10057;DHT22;5068;51.286;7.518;2023-07-29T03:41:27;17.50;73.80
10057;DHT22;5068;51.286;7.518;2023-07-29T03:43:00;17.40;73.70
10057;DHT22;5068;51.286;7.518;2023-07-29T03:44:32;17.40;73.90
10057;DHT22;5068;51.286;7.518;2023-07-29T03:46:08;17.40;73.50
10057;DHT22;5068;51.286;7.518;2023-07-29T03:47:44;17.40;73.90
10057;DHT22;5068;51.286;7.518;2023-07-29T03:49:18;17.40;73.70
10057;DHT22;5068;51.286;7.518;2023-07-29T03:50:51;17.40;73.60
10057;DHT22;5068;51.286;7.518;2023-07-29T03:52:24;17.40;73.60
10057;DHT22;5068;51.286;7.518;2023-07-29T03:53:57;17.40;73.70
10057;DHT22;5068;51.286;7.518;2023-07-29T03:55:30;17.40;73.60
10057;DHT22;5068;51.286;7.518;2023-07-29T03:57:04;17.40;73.80
10057;DHT22;5068;51.286;7.518;2023-07-29T03:58:38;17.40;73.90
10057;DHT22;5068;51.286;7.518;2023-07-29T04:00:12;17.40;73.80
10057;DHT22;5068;51.286;7.518;2023-07-29T04:01:49;17.50;73.90
10057;DHT22;5068;51.286;7.518;2023-07-29T04:03:22;17.40;73.80
10057;DHT22;5068;51.286;7.518;2023-07-29T04:04:57;17.40;73.90
10057;DHT22;5068;51.286;7.518;2023-07-29T04:06:30;17.50;74.00
10057;DHT22;5068;51.286;7.518;2023-07-29T04:08:04;17.50;74.00
10057;DHT22;5068;51.286;7.518;2023-07-29T04:09:37;17.40;73.90
10057;DHT22;5068;51.286;7.518;2023-07-29T04:11:10;17.50;74.00
10057;DHT22;5068;51.286;7.518;2023-07-29T04:12:43;17.50;74.00
10057;DHT22;5068;51.286;7.518;2023-07-29T04:14:16;17.60;74.20
10057;DHT22;5068;51.286;7.518;2023-07-29T04:15:49;17.50;74.10
10057;DHT22;5068;51.286;7.518;2023-07-29T04:17:23;17.50;74.00
10057;DHT22;5068;51.286;7.518;2023-07-29T04:18:57;17.50;74.10
10057;DHT22;5068;51.286;7.518;2023-07-29T04:20:29;17.50;74.00
10057;DHT22;5068;51.286;7.518;2023-07-29T04:22:03;17.50;74.00
10057;DHT22;5068;51.286;7.518;2023-07-29T04:23:36;17.50;74.20
10057;DHT22;5068;51.286;7.518;2023-07-29T04:25:10;17.50;74.90
10057;DHT22;5068;51.286;7.518;2023-07-29T04:26:44;17.50;74.20
10057;DHT22;5068;51.286;7.518;2023-07-29T04:28:17;17.50;74.40
10057;DHT22;5068;51.286;7.518;2023-07-29T04:29:51;17.60;74.30
10057;DHT22;5068;51.286;7.518;2023-07-29T04:31:24;17.50;74.00
10057;DHT22;5068;51.286;7.518;2023-07-29T04:32:59;17.50;73.90
10057;DHT22;5068;51.286;7.518;2023-07-29T04:34:32;17.60;74.20
10057;DHT22;5068;51.286;7.518;2023-07-29T04:36:06;17.60;74.30
10057;DHT22;5068;51.286;7.518;2023-07-29T04:37:39;17.60;74.40
10057;DHT22;5068;51.286;7.518;2023-07-29T04:39:12;17.60;75.20
10057;DHT22;5068;51.286;7.518;2023-07-29T04:40:45;17.60;74.60
10057;DHT22;5068;51.286;7.518;2023-07-29T04:42:19;17.70;74.70
10057;DHT22;5068;51.286;7.518;2023-07-29T04:43:52;17.60;74.80
10057;DHT22;5068;51.286;7.518;2023-07-29T04:45:27;17.60;74.90
10057;DHT22;5068;51.286;7.518;2023-07-29T04:47:02;17.60;75.00
10057;DHT22;5068;51.286;7.518;2023-07-29T04:48:37;17.60;75.00
10057;DHT22;5068;51.286;7.518;2023-07-29T04:50:09;17.60;74.80
10057;DHT22;5068;51.286;7.518;2023-07-29T04:51:43;17.60;74.90
10057;DHT22;5068;51.286;7.518;2023-07-29T04:53:16;17.60;74.90
10057;DHT22;5068;51.286;7.518;2023-07-29T04:54:49;17.60;75.00
10057;DHT22;5068;51.286;7.518;2023-07-29T04:56:23;17.60;75.10
10057;DHT22;5068;51.286;7.518;2023-07-29T04:57:57;17.60;75.10
10057;DHT22;5068;51.286;7.518;2023-07-29T04:59:29;17.70;75.30
10057;DHT22;5068;51.286;7.518;2023-07-29T05:01:03;17.60;75.00
10057;DHT22;5068;51.286;7.518;2023-07-29T05:02:36;17.70;75.30
10057;DHT22;5068;51.286;7.518;2023-07-29T05:04:11;17.80;75.20
10057;DHT22;5068;51.286;7.518;2023-07-29T05:05:44;17.70;75.10
10057;DHT22;5068;51.286;7.518;2023-07-29T05:07:17;17.70;75.20
10057;DHT22;5068;51.286;7.518;2023-07-29T05:08:51;17.70;75.30
10057;DHT22;5068;51.286;7.518;2023-07-29T05:10:24;17.70;75.30
10057;DHT22;5068;51.286;7.518;2023-07-29T05:11:57;17.70;75.20
10057;DHT22;5068;51.286;7.518;2023-07-29T05:13:30;17.70;75.20
10057;DHT22;5068;51.286;7.518;2023-07-29T05:15:07;17.70;75.10
10057;DHT22;5068;51.286;7.518;2023-07-29T05:16:41;17.70;75.40
10057;DHT22;5068;51.286;7.518;2023-07-29T05:18:14;17.70;75.20
10057;DHT22;5068;51.286;7.518;2023-07-29T05:19:49;17.80;75.20
10057;DHT22;5068;51.286;7.518;2023-07-29T05:21:23;17.80;75.00
10057;DHT22;5068;51.286;7.518;2023-07-29T05:22:55;17.80;75.90
10057;DHT22;5068;51.286;7.518;2023-07-29T05:24:29;17.80;75.10
10057;DHT22;5068;51.286;7.518;2023-07-29T05:26:02;17.80;75.30
10057;DHT22;5068;51.286;7.518;2023-07-29T05:27:36;17.80;75.00
10057;DHT22;5068;51.286;7.518;2023-07-29T05:29:09;17.90;75.10
10057;DHT22;5068;51.286;7.518;2023-07-29T05:30:43;17.80;75.90
10057;DHT22;5068;51.286;7.518;2023-07-29T05:32:16;17.80;75.30
10057;DHT22;5068;51.286;7.518;2023-07-29T05:33:50;17.80;75.20
10057;DHT22;5068;51.286;7.518;2023-07-29T05:35:24;17.90;75.50
10057;DHT22;5068;51.286;7.518;2023-07-29T05:36:58;17.90;75.50
10057;DHT22;5068;51.286;7.518;2023-07-29T05:38:32;17.90;75.40
10057;DHT22;5068;51.286;7.518;2023-07-29T05:40:05;17.90;75.70
10057;DHT22;5068;51.286;7.518;2023-07-29T05:41:41;17.90;75.90
10057;DHT22;5068;51.286;7.518;2023-07-29T05:43:13;17.90;75.70
10057;DHT22;5068;51.286;7.518;2023-07-29T05:44:47;17.90;75.60
10057;DHT22;5068;51.286;7.518;2023-07-29T05:46:20;18.00;76.00
10057;DHT22;5068;51.286;7.518;2023-07-29T05:47:53;18.00;75.90
10057;DHT22;5068;51.286;7.518;2023-07-29T05:49:26;18.00;76.00
10057;DHT22;5068;51.286;7.518;2023-07-29T05:51:01;18.00;76.10
10057;DHT22;5068;51.286;7.518;2023-07-29T05:52:34;18.00;76.30
10057;DHT22;5068;51.286;7.518;2023-07-29T05:54:08;18.00;76.30
10057;DHT22;5068;51.286;7.518;2023-07-29T05:55:41;18.00;76.30
10057;DHT22;5068;51.286;7.518;2023-07-29T05:57:14;18.00;77.20
10057;DHT22;5068;51.286;7.518;2023-07-29T05:58:47;18.20;76.60
10057;DHT22;5068;51.286;7.518;2023-07-29T06:00:20;18.10;76.40
10057;DHT22;5068;51.286;7.518;2023-07-29T06:01:53;18.10;76.50
10057;DHT22;5068;51.286;7.518;2023-07-29T06:03:26;18.10;76.60
10057;DHT22;5068;51.286;7.518;2023-07-29T06:04:59;18.10;76.70
10057;DHT22;5068;51.286;7.518;2023-07-29T06:06:36;18.10;76.60
10057;DHT22;5068;51.286;7.518;2023-07-29T06:08:10;18.20;76.80
10057;DHT22;5068;51.286;7.518;2023-07-29T06:09:43;18.20;76.40
10057;DHT22;5068;51.286;7.518;2023-07-29T06:11:17;18.20;76.20
10057;DHT22;5068;51.286;7.518;2023-07-29T06:12:49;18.20;75.90
10057;DHT22;5068;51.286;7.518;2023-07-29T06:14:23;18.20;75.60
10057;DHT22;5068;51.286;7.518;2023-07-29T06:15:56;18.30;75.50
10057;DHT22;5068;51.286;7.518;2023-07-29T06:17:30;18.30;75.00
10057;DHT22;5068;51.286;7.518;2023-07-29T06:19:03;18.30;74.90
10057;DHT22;5068;51.286;7.518;2023-07-29T06:20:36;18.30;74.70
10057;DHT22;5068;51.286;7.518;2023-07-29T06:22:12;18.30;74.70
10057;DHT22;5068;51.286;7.518;2023-07-29T06:23:44;18.30;74.30
10057;DHT22;5068;51.286;7.518;2023-07-29T06:25:18;18.30;74.20
10057;DHT22;5068;51.286;7.518;2023-07-29T06:26:50;18.30;74.20
10057;DHT22;5068;51.286;7.518;2023-07-29T06:28:24;18.30;74.10
10057;DHT22;5068;51.286;7.518;2023-07-29T06:29:57;18.30;74.00
10057;DHT22;5068;51.286;7.518;2023-07-29T06:31:30;18.40;74.10
10057;DHT22;5068;51.286;7.518;2023-07-29T06:33:04;18.30;74.00
10057;DHT22;5068;51.286;7.518;2023-07-29T06:34:37;18.30;73.90
10057;DHT22;5068;51.286;7.518;2023-07-29T06:36:11;18.50;74.00
10057;DHT22;5068;51.286;7.518;2023-07-29T06:37:45;18.40;73.80
10057;DHT22;5068;51.286;7.518;2023-07-29T06:39:18;18.40;73.60
10057;DHT22;5068;51.286;7.518;2023-07-29T06:40:51;18.40;73.70
10057;DHT22;5068;51.286;7.518;2023-07-29T06:42:25;18.40;73.70
10057;DHT22;5068;51.286;7.518;2023-07-29T06:43:59;18.40;73.50
10057;DHT22;5068;51.286;7.518;2023-07-29T06:45:32;18.40;73.50
10057;DHT22;5068;51.286;7.518;2023-07-29T06:47:06;18.50;73.30
10057;DHT22;5068;51.286;7.518;2023-07-29T06:48:38;18.50;73.60
10057;DHT22;5068;51.286;7.518;2023-07-29T06:50:12;18.40;73.50
10057;DHT22;5068;51.286;7.518;2023-07-29T06:51:45;18.50;73.60
10057;DHT22;5068;51.286;7.518;2023-07-29T06:53:20;18.50;73.50
10057;DHT22;5068;51.286;7.518;2023-07-29T06:54:54;18.50;73.70
10057;DHT22;5068;51.286;7.518;2023-07-29T06:56:26;18.50;73.30
10057;DHT22;5068;51.286;7.518;2023-07-29T06:58:02;18.50;73.30
10057;DHT22;5068;51.286;7.518;2023-07-29T06:59:34;18.40;72.80
10057;DHT22;5068;51.286;7.518;2023-07-29T07:01:10;18.50;73.00
10057;DHT22;5068;51.286;7.518;2023-07-29T07:02:44;18.60;72.90
10057;DHT22;5068;51.286;7.518;2023-07-29T07:04:17;18.50;72.60
10057;DHT22;5068;51.286;7.518;2023-07-29T07:05:51;18.60;72.80
10057;DHT22;5068;51.286;7.518;2023-07-29T07:07:23;18.50;71.90
10057;DHT22;5068;51.286;7.518;2023-07-29T07:08:58;18.40;72.10
10057;DHT22;5068;51.286;7.518;2023-07-29T07:10:30;18.60;72.10
10057;DHT22;5068;51.286;7.518;2023-07-29T07:12:06;18.60;72.10
10057;DHT22;5068;51.286;7.518;2023-07-29T07:13:40;18.60;72.70
10057;DHT22;5068;51.286;7.518;2023-07-29T07:15:13;18.60;72.60
10057;DHT22;5068;51.286;7.518;2023-07-29T07:16:45;18.60;72.40
10057;DHT22;5068;51.286;7.518;2023-07-29T07:18:19;18.60;72.20
10057;DHT22;5068;51.286;7.518;2023-07-29T07:19:54;18.50;71.60
10057;DHT22;5068;51.286;7.518;2023-07-29T07:21:27;18.50;71.20
10057;DHT22;5068;51.286;7.518;2023-07-29T07:23:00;18.50;70.90
10057;DHT22;5068;51.286;7.518;2023-07-29T07:24:34;18.50;70.60
10057;DHT22;5068;51.286;7.518;2023-07-29T07:26:07;18.50;70.60
10057;DHT22;5068;51.286;7.518;2023-07-29T07:27:40;18.50;70.20
10057;DHT22;5068;51.286;7.518;2023-07-29T07:29:14;18.50;69.90
10057;DHT22;5068;51.286;7.518;2023-07-29T07:30:46;18.50;69.90
10057;DHT22;5068;51.286;7.518;2023-07-29T07:32:20;18.50;69.80
10057;DHT22;5068;51.286;7.518;2023-07-29T07:33:56;18.50;69.80
10057;DHT22;5068;51.286;7.518;2023-07-29T07:35:30;18.50;68.80
10057;DHT22;5068;51.286;7.518;2023-07-29T07:37:06;18.50;69.40
10057;DHT22;5068;51.286;7.518;2023-07-29T07:38:44;18.50;69.80
10057;DHT22;5068;51.286;7.518;2023-07-29T07:40:18;18.50;70.20
10057;DHT22;5068;51.286;7.518;2023-07-29T07:41:52;18.50;70.00
10057;DHT22;5068;51.286;7.518;2023-07-29T07:43:24;18.40;69.60
10057;DHT22;5068;51.286;7.518;2023-07-29T07:44:58;18.40;69.80
10057;DHT22;5068;51.286;7.518;2023-07-29T07:46:31;18.50;69.70
10057;DHT22;5068;51.286;7.518;2023-07-29T07:48:04;18.40;70.00
10057;DHT22;5068;51.286;7.518;2023-07-29T07:49:39;18.50;69.20
10057;DHT22;5068;51.286;7.518;2023-07-29T07:51:12;18.50;69.60
10057;DHT22;5068;51.286;7.518;2023-07-29T07:52:46;18.50;70.00
10057;DHT22;5068;51.286;7.518;2023-07-29T07:54:18;18.60;70.00
10057;DHT22;5068;51.286;7.518;2023-07-29T07:55:53;18.60;69.90
10057;DHT22;5068;51.286;7.518;2023-07-29T07:57:25;18.60;69.40
10057;DHT22;5068;51.286;7.518;2023-07-29T07:58:59;18.70;68.90
10057;DHT22;5068;51.286;7.518;2023-07-29T08:00:31;18.70;68.90
10057;DHT22;5068;51.286;7.518;2023-07-29T08:02:05;18.90;69.30
10057;DHT22;5068;51.286;7.518;2023-07-29T08:03:37;18.90;68.90
10057;DHT22;5068;51.286;7.518;2023-07-29T08:05:11;19.00;68.90
10057;DHT22;5068;51.286;7.518;2023-07-29T08:06:43;18.90;68.90
10057;DHT22;5068;51.286;7.518;2023-07-29T08:08:17;19.00;68.00
10057;DHT22;5068;51.286;7.518;2023-07-29T08:09:49;19.00;67.80
10057;DHT22;5068;51.286;7.518;2023-07-29T08:11:25;19.10;67.30
10057;DHT22;5068;51.286;7.518;2023-07-29T08:12:58;19.10;67.20
10057;DHT22;5068;51.286;7.518;2023-07-29T08:14:31;19.20;67.10
10057;DHT22;5068;51.286;7.518;2023-07-29T08:16:05;19.20;66.80
10057;DHT22;5068;51.286;7.518;2023-07-29T08:17:37;19.30;66.10
10057;DHT22;5068;51.286;7.518;2023-07-29T08:19:11;19.30;66.10
10057;DHT22;5068;51.286;7.518;2023-07-29T08:20:52;19.40;65.70
10057;DHT22;5068;51.286;7.518;2023-07-29T08:22:26;19.40;66.00
10057;DHT22;5068;51.286;7.518;2023-07-29T08:24:00;19.40;67.10
10057;DHT22;5068;51.286;7.518;2023-07-29T08:25:32;19.40;66.10
10057;DHT22;5068;51.286;7.518;2023-07-29T08:27:07;19.40;66.00
10057;DHT22;5068;51.286;7.518;2023-07-29T08:28:40;19.40;64.50
10057;DHT22;5068;51.286;7.518;2023-07-29T08:30:13;19.40;65.00
10057;DHT22;5068;51.286;7.518;2023-07-29T08:31:47;19.60;65.50
10057;DHT22;5068;51.286;7.518;2023-07-29T08:33:23;19.50;65.20
10057;DHT22;5068;51.286;7.518;2023-07-29T08:34:56;19.50;64.50
10057;DHT22;5068;51.286;7.518;2023-07-29T08:36:30;19.40;64.10
10057;DHT22;5068;51.286;7.518;2023-07-29T08:38:02;19.50;63.80
10057;DHT22;5068;51.286;7.518;2023-07-29T08:39:36;19.50;63.40
10057;DHT22;5068;51.286;7.518;2023-07-29T08:41:13;19.60;63.30
10057;DHT22;5068;51.286;7.518;2023-07-29T08:42:49;19.60;63.40
10057;DHT22;5068;51.286;7.518;2023-07-29T08:44:25;19.60;63.10
10057;DHT22;5068;51.286;7.518;2023-07-29T08:46:01;19.60;63.40
10057;DHT22;5068;51.286;7.518;2023-07-29T08:47:36;19.60;63.10
10057;DHT22;5068;51.286;7.518;2023-07-29T08:49:09;19.60;63.00
10057;DHT22;5068;51.286;7.518;2023-07-29T08:50:46;19.70;63.30
10057;DHT22;5068;51.286;7.518;2023-07-29T08:52:20;19.60;63.50
10057;DHT22;5068;51.286;7.518;2023-07-29T08:53:54;19.70;63.50
10057;DHT22;5068;51.286;7.518;2023-07-29T08:55:28;19.70;63.60
10057;DHT22;5068;51.286;7.518;2023-07-29T08:57:03;19.70;63.50
10057;DHT22;5068;51.286;7.518;2023-07-29T08:58:39;19.80;63.10
10057;DHT22;5068;51.286;7.518;2023-07-29T09:00:13;19.80;62.90
10057;DHT22;5068;51.286;7.518;2023-07-29T09:01:51;19.90;62.90
10057;DHT22;5068;51.286;7.518;2023-07-29T09:03:27;19.90;62.80
10057;DHT22;5068;51.286;7.518;2023-07-29T09:05:01;20.00;62.50
10057;DHT22;5068;51.286;7.518;2023-07-29T09:06:34;20.00;62.70
10057;DHT22;5068;51.286;7.518;2023-07-29T09:08:10;20.10;62.40
10057;DHT22;5068;51.286;7.518;2023-07-29T09:09:43;20.10;62.40
10057;DHT22;5068;51.286;7.518;2023-07-29T09:11:17;20.10;61.50
10057;DHT22;5068;51.286;7.518;2023-07-29T09:12:49;20.20;61.80
10057;DHT22;5068;51.286;7.518;2023-07-29T09:14:27;20.30;62.10
10057;DHT22;5068;51.286;7.518;2023-07-29T09:16:01;20.30;61.60
10057;DHT22;5068;51.286;7.518;2023-07-29T09:17:34;20.40;61.00
10057;DHT22;5068;51.286;7.518;2023-07-29T09:19:08;20.40;60.90
10057;DHT22;5068;51.286;7.518;2023-07-29T09:20:40;20.50;61.10
10057;DHT22;5068;51.286;7.518;2023-07-29T09:22:17;20.50;60.90
10057;DHT22;5068;51.286;7.518;2023-07-29T09:23:51;20.60;60.20
10057;DHT22;5068;51.286;7.518;2023-07-29T09:25:25;20.60;60.30
10057;DHT22;5068;51.286;7.518;2023-07-29T09:26:58;20.70;60.90
10057;DHT22;5068;51.286;7.518;2023-07-29T09:28:34;20.70;60.50
10057;DHT22;5068;51.286;7.518;2023-07-29T09:30:15;20.70;60.40
10057;DHT22;5068;51.286;7.518;2023-07-29T09:32:20;20.80;60.20
10057;DHT22;5068;51.286;7.518;2023-07-29T09:33:56;20.90;60.00
10057;DHT22;5068;51.286;7.518;2023-07-29T09:35:32;20.90;59.70
10057;DHT22;5068;51.286;7.518;2023-07-29T09:37:07;20.90;59.40
10057;DHT22;5068;51.286;7.518;2023-07-29T09:38:40;21.00;59.30
10057;DHT22;5068;51.286;7.518;2023-07-29T09:40:14;21.10;58.90
10057;DHT22;5068;51.286;7.518;2023-07-29T09:41:48;21.00;58.80
10057;DHT22;5068;51.286;7.518;2023-07-29T09:43:25;21.00;58.80
10057;DHT22;5068;51.286;7.518;2023-07-29T09:45:00;21.00;58.30
10057;DHT22;5068;51.286;7.518;2023-07-29T09:46:37;21.00;58.20
10057;DHT22;5068;51.286;7.518;2023-07-29T09:48:11;21.00;58.30
10057;DHT22;5068;51.286;7.518;2023-07-29T09:49:44;21.00;58.30
10057;DHT22;5068;51.286;7.518;2023-07-29T09:51:18;20.90;58.20
10057;DHT22;5068;51.286;7.518;2023-07-29T09:52:51;20.90;58.10
10057;DHT22;5068;51.286;7.518;2023-07-29T09:54:26;20.90;58.30
10057;DHT22;5068;51.286;7.518;2023-07-29T09:55:58;20.90;58.20
10057;DHT22;5068;51.286;7.518;2023-07-29T09:57:32;20.90;58.20
10057;DHT22;5068;51.286;7.518;2023-07-29T09:59:05;20.90;59.00
10057;DHT22;5068;51.286;7.518;2023-07-29T10:00:38;20.80;58.60
10057;DHT22;5068;51.286;7.518;2023-07-29T10:02:16;20.80;58.60
10057;DHT22;5068;51.286;7.518;2023-07-29T10:03:50;20.90;58.70
10057;DHT22;5068;51.286;7.518;2023-07-29T10:05:25;20.80;58.80